This is the latest recevied weather packets stored in our database for station/object SQ9RHX-11. If no packets are shown the sender has not sent any weather packets the latest 10 day(s).
| Time | Temp. | Humidity | Pressure | Rain* | Wind** | Luminosity | Snow |
|---|---|---|---|---|---|---|---|
| 1777768297 | 11.67° C | 53% | 1018.3 hPa | - | - | - | - |
| 1777766497 | 12.22° C | 53% | 1018.6 hPa | - | - | - | - |
| 1777764697 | 12.22° C | 55% | 1018.7 hPa | - | - | - | - |
| 1777762898 | 11.11° C | 59% | 1019 hPa | - | - | - | - |
| 1777761098 | 9.44° C | 62% | 1019.1 hPa | - | - | - | - |
| 1777759299 | 8.33° C | 60% | 1019 hPa | - | - | - | - |
| 1777757500 | 9.44° C | 58% | 1019 hPa | - | - | - | - |
| 1777755700 | 10° C | 54% | 1019.2 hPa | - | - | - | - |
| 1777753901 | 11.11° C | 51% | 1019.3 hPa | - | - | - | - |
| 1777752101 | 12.22° C | 48% | 1019.4 hPa | - | - | - | - |
| 1777750301 | 12.22° C | 45% | 1019.5 hPa | - | - | - | - |
| 1777748502 | 14.44° C | 39% | 1019.4 hPa | - | - | - | - |
| 1777746703 | 17.78° C | 35% | 1019.4 hPa | - | - | - | - |
| 1777744903 | 20.56° C | 31% | 1019.2 hPa | - | - | - | - |
| 1777743103 | 22.22° C | 29% | 1019.4 hPa | - | - | - | - |
| 1777741304 | 22.78° C | 27% | 1019.6 hPa | - | - | - | - |
| 1777739504 | 24.44° C | 27% | 1020 hPa | - | - | - | - |
| 1777737704 | 25° C | 27% | 1020.4 hPa | - | - | - | - |
| 1777735905 | 26.11° C | 27% | 1020.8 hPa | - | - | - | - |
| 1777734105 | 26.11° C | 25% | 1021.1 hPa | - | - | - | - |
| 1777732306 | 27.78° C | 24% | 1021.5 hPa | - | - | - | - |
| 1777730506 | 28.89° C | 24% | 1021.9 hPa | - | - | - | - |
| 1777728706 | 29.44° C | 24% | 1022.1 hPa | - | - | - | - |
| 1777726907 | 30.56° C | 23% | 1022.6 hPa | - | - | - | - |
| 1777725108 | 29.44° C | 25% | 1023 hPa | - | - | - | - |
* Rain since midnight (hover to see other rain measurements)
** Current wind speed in m/s (hover to see current wind gust speed)